Terminal Aerodrome Forecast
Issued by NWS

Home | Current Version | Previous Version | Text Only | Print | Product List | Glossary On
Versions: 1 2 3 4 5 6 7 8 9 10 11 12 13 14 15 16 17 18 19 20 21 22 23 24 25 26 27 28 29 30 31 32 33 34 35 36 37 38 39 40 41 42 43 44 45 46
000
FTUS44 KLIX 201700
TAFHUM
TAF
KHUM 201723Z 2018/2118 07014KT P6SM VCSH SCT025
      TEMPO 2018/2020 BKN025
     FM210100 09006KT P6SM SCT250
     FM211500 05008KT P6SM FEW040=

USA.gov is the U.S. government's official web portal to all federal, state and local government web resources and services.